Time;durP1;ratioP1;P1;durP2;ratioP2;P2;SDS_P1;SDS_P2;PMS_P1;PMS_P2;Temp;Humidity;BMP_temperature;BMP_pressure;BME280_temperature;BME280_humidity;BME280_pressure;Samples;Min_cycle;Max_cycle;Signal;HPM_P1;HPM_P2
2023/04/19 00:01:00;;;;;;;9.00;5.85;;;;;;;;;;4880225;29;20025;-95
2023/04/19 00:03:26;;;;;;;7.95;5.78;;;;;;;;;;4864950;29;20155;-90
2023/04/19 00:05:53;;;;;;;10.23;6.55;;;;;;;;;;4883026;29;20438;-94
2023/04/19 00:08:20;;;;;;;8.48;6.30;;;;;;;;;;4870094;29;20033;-94
2023/04/19 00:10:46;;;;;;;9.00;5.28;;;;;;;;;;4881576;29;20033;-90
2023/04/19 00:13:12;;;;;;;8.13;5.10;;;;;;;;;;4880498;29;20037;-89
2023/04/19 00:15:39;;;;;;;9.32;5.00;;;;;;;;;;4880518;29;20033;-95
2023/04/19 00:18:05;;;;;;;7.20;4.78;;;;;;;;;;4864884;29;20053;-89
2023/04/19 00:20:31;;;;;;;8.00;5.00;;;;;;;;;;4879554;29;20137;-89
2023/04/19 00:22:58;;;;;;;6.53;4.72;;;;;;;;;;4879165;29;20021;-95
2023/04/19 00:25:25;;;;;;;12.93;5.55;;;;;;;;;;4880734;29;20113;-89
2023/04/19 00:27:51;;;;;;;8.55;5.70;;;;;;;;;;4879958;29;20029;-95
2023/04/19 00:30:18;;;;;;;9.48;6.75;;;;;;;;;;4881595;29;20045;-90
2023/04/19 00:32:45;;;;;;;11.43;7.03;;;;;;;;;;4885375;29;20029;-95
2023/04/19 00:35:11;;;;;;;11.68;7.03;;;;;;;;;;4883779;29;20029;-94
2023/04/19 00:37:37;;;;;;;9.40;6.32;;;;;;;;;;4883057;29;20037;-89
2023/04/19 00:40:04;;;;;;;9.90;5.72;;;;;;;;;;4883204;29;20035;-87
2023/04/19 00:42:31;;;;;;;9.57;6.38;;;;;;;;;;4882756;29;20033;-89
2023/04/19 00:44:57;;;;;;;9.40;7.15;;;;;;;;;;4882908;29;20124;-89
2023/04/19 00:47:23;;;;;;;10.40;7.47;;;;;;;;;;4883509;29;20458;-89
2023/04/19 00:49:49;;;;;;;13.07;9.25;;;;;;;;;;4883011;29;20033;-90
2023/04/19 00:52:15;;;;;;;13.82;9.45;;;;;;;;;;4883403;29;20029;-88
2023/04/19 00:54:43;;;;;;;13.70;10.70;;;;;;;;;;4882786;29;20053;-94
2023/04/19 00:57:09;;;;;;;15.65;10.88;;;;;;;;;;4882711;29;20478;-89
2023/04/19 00:59:36;;;;;;;18.90;13.13;;;;;;;;;;4883197;29;20025;-95
2023/04/19 01:02:02;;;;;;;17.60;12.75;;;;;;;;;;4882662;29;20025;-87
2023/04/19 01:04:28;;;;;;;16.08;12.32;;;;;;;;;;4882447;29;20048;-88
2023/04/19 01:06:55;;;;;;;23.38;14.35;;;;;;;;;;4882541;29;20029;-96
2023/04/19 01:09:22;;;;;;;16.90;13.48;;;;;;;;;;4884107;29;20029;-93
2023/04/19 01:11:49;;;;;;;17.65;13.07;;;;;;;;;;4882597;29;20033;-90
2023/04/19 01:14:15;;;;;;;20.02;13.73;;;;;;;;;;4882945;29;20458;-89
2023/04/19 01:16:42;;;;;;;17.55;13.10;;;;;;;;;;4885325;29;20089;-95
2023/04/19 01:19:08;;;;;;;18.45;13.82;;;;;;;;;;4867431;29;20056;-95
2023/04/19 01:21:38;;;;;;;18.10;14.35;;;;;;;;;;4867863;29;20033;-95
2023/04/19 01:24:04;;;;;;;22.10;16.35;;;;;;;;;;4885396;29;20044;-91
2023/04/19 01:26:31;;;;;;;20.00;14.60;;;;;;;;;;4892127;29;20029;-90
2023/04/19 01:28:57;;;;;;;19.92;15.32;;;;;;;;;;4883999;29;20036;-89
2023/04/19 01:31:23;;;;;;;21.17;16.98;;;;;;;;;;4882785;29;20062;-87
2023/04/19 01:33:49;;;;;;;22.15;16.17;;;;;;;;;;4882200;29;20044;-94
2023/04/19 01:36:15;;;;;;;22.67;16.83;;;;;;;;;;4882151;29;20052;-95
2023/04/19 01:38:41;;;;;;;18.63;15.45;;;;;;;;;;4867098;29;20067;-89
2023/04/19 01:41:07;;;;;;;19.25;16.08;;;;;;;;;;4881689;29;20025;-92
2023/04/19 01:43:34;;;;;;;23.08;17.30;;;;;;;;;;4881469;29;20037;-89
2023/04/19 01:46:00;;;;;;;22.40;16.98;;;;;;;;;;4881484;29;20045;-88
2023/04/19 01:48:26;;;;;;;22.77;16.88;;;;;;;;;;4882034;29;20088;-96
2023/04/19 01:50:53;;;;;;;23.92;17.80;;;;;;;;;;4881820;29;20084;-90
2023/04/19 01:53:19;;;;;;;22.88;17.70;;;;;;;;;;4883213;29;20390;-88
2023/04/19 01:55:45;;;;;;;23.70;18.88;;;;;;;;;;4882602;29;20036;-93
2023/04/19 01:58:11;;;;;;;31.40;19.52;;;;;;;;;;4881600;29;20032;-89
2023/04/19 02:00:37;;;;;;;23.75;19.25;;;;;;;;;;4881960;29;20120;-95
2023/04/19 02:03:04;;;;;;;23.92;17.90;;;;;;;;;;4881413;29;20029;-90
2023/04/19 02:05:30;;;;;;;26.42;20.45;;;;;;;;;;4881471;29;20041;-89
2023/04/19 02:07:56;;;;;;;26.88;20.92;;;;;;;;;;4881338;29;20068;-90
2023/04/19 02:10:22;;;;;;;24.83;18.60;;;;;;;;;;4881443;29;20059;-96
2023/04/19 02:12:48;;;;;;;30.42;21.85;;;;;;;;;;4866268;29;20041;-95
2023/04/19 02:15:15;;;;;;;25.67;19.95;;;;;;;;;;4881468;29;20127;-95
2023/04/19 02:17:42;;;;;;;27.27;19.45;;;;;;;;;;4882285;29;20052;-89
2023/04/19 02:20:08;;;;;;;25.05;18.95;;;;;;;;;;4881977;29;20455;-89
2023/04/19 02:22:35;;;;;;;26.92;20.25;;;;;;;;;;4883657;29;20120;-94
2023/04/19 02:25:01;;;;;;;25.50;19.33;;;;;;;;;;4870972;29;20171;-89
2023/04/19 02:27:28;;;;;;;25.08;19.48;;;;;;;;;;4881684;29;20394;-89
2023/04/19 02:29:55;;;;;;;27.00;19.00;;;;;;;;;;4881351;29;20487;-95
2023/04/19 02:32:21;;;;;;;28.35;20.42;;;;;;;;;;4881229;29;20025;-87
2023/04/19 02:34:47;;;;;;;24.08;18.83;;;;;;;;;;4883271;29;20062;-89
2023/04/19 02:37:13;;;;;;;25.88;20.15;;;;;;;;;;4882165;29;20474;-88
2023/04/19 02:39:41;;;;;;;24.63;17.85;;;;;;;;;;4881089;29;20089;-95
2023/04/19 02:42:07;;;;;;;25.95;18.35;;;;;;;;;;4880577;29;20037;-90
2023/04/19 02:44:34;;;;;;;24.25;17.15;;;;;;;;;;4881354;29;20388;-90
2023/04/19 02:47:01;;;;;;;5.20;3.47;;;;;;;;;;4881620;29;20382;-90
2023/04/19 02:49:27;;;;;;;5.57;3.60;;;;;;;;;;4880774;29;20033;-90
2023/04/19 02:51:53;;;;;;;15.30;12.20;;;;;;;;;;4883140;29;20029;-94
2023/04/19 02:54:19;;;;;;;22.00;16.80;;;;;;;;;;4881839;29;20033;-90
2023/04/19 02:56:46;;;;;;;24.92;17.45;;;;;;;;;;4881747;29;20025;-96
2023/04/19 02:59:12;;;;;;;27.77;20.90;;;;;;;;;;4866349;29;20053;-95
2023/04/19 03:01:39;;;;;;;29.77;21.67;;;;;;;;;;4881871;29;20176;-96
2023/04/19 03:04:05;;;;;;;29.10;21.02;;;;;;;;;;4865201;29;20407;-90
2023/04/19 03:06:31;;;;;;;29.30;20.95;;;;;;;;;;4880238;29;20036;-89
2023/04/19 03:08:58;;;;;;;27.38;22.25;;;;;;;;;;4880540;29;20045;-95
2023/04/19 03:11:24;;;;;;;27.23;20.77;;;;;;;;;;4880890;29;20025;-89
2023/04/19 03:13:50;;;;;;;27.33;20.13;;;;;;;;;;4880886;29;20475;-95
2023/04/19 03:16:16;;;;;;;26.23;21.02;;;;;;;;;;4866237;29;20092;-89
2023/04/19 03:18:43;;;;;;;27.73;21.48;;;;;;;;;;4881482;29;20073;-96
2023/04/19 03:21:09;;;;;;;28.17;20.55;;;;;;;;;;4880992;29;20032;-95
2023/04/19 03:23:35;;;;;;;27.10;20.05;;;;;;;;;;4865031;29;20128;-89
2023/04/19 03:26:01;;;;;;;28.58;21.02;;;;;;;;;;4881503;29;20466;-90
2023/04/19 03:28:27;;;;;;;25.20;18.42;;;;;;;;;;4882690;29;20033;-95
2023/04/19 03:30:54;;;;;;;23.63;18.83;;;;;;;;;;4881863;29;20025;-94
2023/04/19 03:33:20;;;;;;;21.48;17.48;;;;;;;;;;4880259;29;20033;-95
2023/04/19 03:35:47;;;;;;;26.10;20.38;;;;;;;;;;4880957;29;20033;-96
2023/04/19 03:38:13;;;;;;;24.48;20.13;;;;;;;;;;4865174;29;20029;-89
2023/04/19 03:40:39;;;;;;;29.58;20.95;;;;;;;;;;4880628;29;20048;-88
2023/04/19 03:43:05;;;;;;;25.98;21.13;;;;;;;;;;4880026;29;20025;-95
2023/04/19 03:45:31;;;;;;;29.73;21.85;;;;;;;;;;4880181;29;20406;-89
2023/04/19 03:47:57;;;;;;;28.55;22.15;;;;;;;;;;4880006;29;20029;-89
2023/04/19 03:50:23;;;;;;;26.55;21.65;;;;;;;;;;4881218;29;20033;-89
2023/04/19 03:52:50;;;;;;;28.48;22.05;;;;;;;;;;4880141;29;20036;-93
2023/04/19 03:55:17;;;;;;;26.48;22.30;;;;;;;;;;4880666;29;20033;-95
2023/04/19 03:57:44;;;;;;;29.63;22.48;;;;;;;;;;4882286;29;20033;-89
2023/04/19 04:00:11;;;;;;;27.85;22.05;;;;;;;;;;4879586;29;20029;-94
2023/04/19 04:02:38;;;;;;;29.98;23.27;;;;;;;;;;4880439;29;20359;-89
2023/04/19 04:05:05;;;;;;;33.22;25.60;;;;;;;;;;4879192;29;20041;-95
2023/04/19 04:07:31;;;;;;;34.17;26.13;;;;;;;;;;4879536;29;20025;-90
2023/04/19 04:10:05;;;;;;;37.60;28.13;;;;;;;;;;4879712;29;20029;-95
2023/04/19 04:12:31;;;;;;;33.75;26.45;;;;;;;;;;4879432;29;20032;-89
2023/04/19 04:14:58;;;;;;;35.28;27.52;;;;;;;;;;4879243;29;20037;-87
2023/04/19 04:17:24;;;;;;;34.17;26.90;;;;;;;;;;4878802;29;20081;-89
2023/04/19 04:19:50;;;;;;;37.30;27.70;;;;;;;;;;4879163;29;20032;-88
2023/04/19 04:22:16;;;;;;;36.42;26.70;;;;;;;;;;4879285;29;20029;-89
2023/04/19 04:24:43;;;;;;;33.22;26.45;;;;;;;;;;4879005;29;20033;-89
2023/04/19 04:27:09;;;;;;;33.67;26.23;;;;;;;;;;4879295;29;20037;-89
2023/04/19 04:29:44;;;;;;;37.03;27.95;;;;;;;;;;4879723;29;20033;-89
2023/04/19 04:32:40;;;;;;;35.25;27.45;;;;;;;;;;5182459;23;20024;-94
2023/04/19 04:35:10;;;;;;;37.17;27.60;;;;;;;;;;4890252;29;20092;-89
2023/04/19 04:37:36;;;;;;;36.25;27.10;;;;;;;;;;4883092;29;20500;-91
2023/04/19 04:40:07;;;;;;;38.40;26.90;;;;;;;;;;4878609;29;20033;-91
2023/04/19 04:42:34;;;;;;;33.50;26.10;;;;;;;;;;4879918;29;20090;-86
2023/04/19 04:45:00;;;;;;;36.28;26.90;;;;;;;;;;4875896;29;20098;-85
2023/04/19 04:47:33;;;;;;;32.83;25.63;;;;;;;;;;4875862;29;20033;-88
2023/04/19 04:49:59;;;;;;;34.90;24.90;;;;;;;;;;4875983;29;20116;-88
2023/04/19 04:52:29;;;;;;;35.28;26.25;;;;;;;;;;4875736;29;20030;-95
2023/04/19 04:54:55;;;;;;;39.35;27.45;;;;;;;;;;4876076;29;20162;-88
2023/04/19 04:57:21;;;;;;;36.10;27.92;;;;;;;;;;4884220;29;20037;-94
2023/04/19 04:59:47;;;;;;;35.17;27.88;;;;;;;;;;4894715;29;20029;-89
2023/04/19 05:02:14;;;;;;;37.75;27.40;;;;;;;;;;4878586;29;20097;-86
2023/04/19 05:04:40;;;;;;;35.15;27.63;;;;;;;;;;4879620;29;20117;-91
2023/04/19 05:07:06;;;;;;;36.22;28.25;;;;;;;;;;4894060;29;20029;-92
2023/04/19 05:09:32;;;;;;;39.92;29.13;;;;;;;;;;4894213;29;20029;-92
2023/04/19 05:11:58;;;;;;;36.13;27.90;;;;;;;;;;4894117;29;20052;-88
2023/04/19 05:14:24;;;;;;;36.58;28.38;;;;;;;;;;4894036;29;20037;-90
2023/04/19 05:16:50;;;;;;;41.20;29.85;;;;;;;;;;4895154;29;20469;-88
2023/04/19 05:19:16;;;;;;;38.28;29.80;;;;;;;;;;4902032;29;20025;-87
2023/04/19 05:21:43;;;;;;;39.75;30.73;;;;;;;;;;4906241;29;20033;-91
2023/04/19 05:24:12;;;;;;;41.50;30.23;;;;;;;;;;4883001;29;20485;-93
2023/04/19 05:26:38;;;;;;;39.25;30.15;;;;;;;;;;4897824;29;20037;-89
2023/04/19 05:29:22;;;;;;;38.63;30.33;;;;;;;;;;4898256;29;20053;-92
2023/04/19 05:31:51;;;;;;;40.80;29.48;;;;;;;;;;4882987;29;20104;-94
2023/04/19 05:34:17;;;;;;;37.05;29.05;;;;;;;;;;4882638;29;20081;-92
2023/04/19 05:36:44;;;;;;;35.13;28.55;;;;;;;;;;4897627;29;20025;-93
2023/04/19 05:39:10;;;;;;;38.15;29.13;;;;;;;;;;4897295;29;20029;-93
2023/04/19 05:41:39;;;;;;;37.08;28.65;;;;;;;;;;4887391;29;20084;-93
2023/04/19 05:44:06;;;;;;;35.42;26.98;;;;;;;;;;4881398;29;20052;-91
2023/04/19 05:46:32;;;;;;;32.15;25.95;;;;;;;;;;4897920;29;20097;-91
2023/04/19 05:48:58;;;;;;;31.90;24.98;;;;;;;;;;4897563;29;20112;-87
2023/04/19 05:51:24;;;;;;;31.13;25.17;;;;;;;;;;4898364;29;20033;-90
2023/04/19 05:53:53;;;;;;;35.22;27.05;;;;;;;;;;4897552;29;20096;-95
2023/04/19 05:56:19;;;;;;;35.58;27.33;;;;;;;;;;4896805;29;20036;-94
2023/04/19 05:58:48;;;;;;;29.23;24.35;;;;;;;;;;4897813;29;20035;-90
2023/04/19 06:01:34;;;;;;;38.67;25.75;;;;;;;;;;4900434;29;20033;-94
2023/04/19 06:04:13;;;;;;;28.30;23.90;;;;;;;;;;4897332;29;20033;-94
2023/04/19 06:06:39;;;;;;;31.35;25.35;;;;;;;;;;4897541;29;20513;-87
2023/04/19 06:09:18;;;;;;;28.30;23.63;;;;;;;;;;4896993;29;20080;-94
2023/04/19 06:11:44;;;;;;;29.60;23.27;;;;;;;;;;4886472;29;20039;-94
2023/04/19 06:14:12;;;;;;;27.85;23.02;;;;;;;;;;4880282;29;20505;-94
2023/04/19 06:16:43;;;;;;;28.38;23.98;;;;;;;;;;4862572;29;20059;-92
2023/04/19 06:19:26;;;;;;;30.20;24.85;;;;;;;;;;4856662;29;20050;-91
2023/04/19 06:21:53;;;;;;;;;;;;;;;;;;4863042;29;20072;-92
2023/04/19 06:24:19;;;;;;;29.02;23.67;;;;;;;;;;4878057;29;19983;-92
2023/04/19 06:26:47;;;;;;;28.23;22.85;;;;;;;;;;4861913;29;20090;-93
2023/04/19 06:29:13;;;;;;;25.92;22.20;;;;;;;;;;4862349;29;20044;-92
2023/04/19 06:31:39;;;;;;;27.65;23.95;;;;;;;;;;4862414;29;20108;-88
2023/04/19 06:34:05;;;;;;;26.02;22.10;;;;;;;;;;4861733;29;20051;-89
2023/04/19 06:36:32;;;;;;;25.35;22.25;;;;;;;;;;4862146;29;20536;-92
2023/04/19 06:38:58;;;;;;;30.75;25.00;;;;;;;;;;4862204;29;20124;-90
2023/04/19 06:41:25;;;;;;;28.27;23.20;;;;;;;;;;4863156;29;20029;-92
2023/04/19 06:43:56;;;;;;;28.20;23.23;;;;;;;;;;4864341;29;20163;-94
2023/04/19 06:46:22;;;;;;;27.63;23.85;;;;;;;;;;4863768;29;20029;-92
2023/04/19 06:48:57;;;;;;;28.25;23.70;;;;;;;;;;4864081;29;20078;-88
2023/04/19 06:51:26;;;;;;;27.73;22.90;;;;;;;;;;4879382;29;20025;-92
2023/04/19 06:54:05;;;;;;;28.27;23.73;;;;;;;;;;4890667;29;20146;-93
2023/04/19 06:56:44;;;;;;;28.10;24.10;;;;;;;;;;4879620;29;20041;-93
2023/04/19 06:59:10;;;;;;;28.33;23.15;;;;;;;;;;4877298;29;20030;-91
2023/04/19 07:01:36;;;;;;;26.80;23.02;;;;;;;;;;4876809;29;20489;-89
2023/04/19 07:07:06;;;;;;;31.23;24.80;;;;;;;;;;4862413;29;20550;-86
2023/04/19 07:09:32;;;;;;;27.38;23.30;;;;;;;;;;4861239;29;20074;-87
2023/04/19 07:12:20;;;;;;;27.13;21.88;;;;;;;;;;4877640;29;20062;-87
2023/04/19 07:14:56;;;;;;;27.25;21.95;;;;;;;;;;4877152;29;20479;-87
2023/04/19 07:17:25;;;;;;;28.58;22.85;;;;;;;;;;4876519;29;20025;-88
2023/04/19 07:19:53;;;;;;;30.25;23.45;;;;;;;;;;4870312;29;20041;-87
2023/04/19 07:22:21;;;;;;;28.65;21.52;;;;;;;;;;4858924;29;20026;-90
2023/04/19 07:24:48;;;;;;;27.00;22.38;;;;;;;;;;4858434;29;20049;-92
2023/04/19 07:27:16;;;;;;;28.25;23.10;;;;;;;;;;4843345;29;20079;-86
2023/04/19 07:29:42;;;;;;;25.90;22.70;;;;;;;;;;4858319;29;20033;-89
2023/04/19 07:32:09;;;;;;;27.40;21.73;;;;;;;;;;4843976;29;20064;-87
2023/04/19 07:34:40;;;;;;;23.67;20.23;;;;;;;;;;4858114;29;20126;-88
2023/04/19 07:37:06;;;;;;;25.60;20.42;;;;;;;;;;4858288;29;20395;-87
2023/04/19 07:39:32;;;;;;;25.10;20.58;;;;;;;;;;4857426;29;20125;-89
2023/04/19 07:42:07;;;;;;;25.88;21.08;;;;;;;;;;4857960;29;20037;-87
2023/04/19 07:44:44;;;;;;;23.45;20.15;;;;;;;;;;4844954;29;20086;-87
2023/04/19 07:47:11;;;;;;;20.88;16.60;;;;;;;;;;4857767;29;20063;-91
2023/04/19 07:49:37;;;;;;;18.70;16.15;;;;;;;;;;4857830;29;20105;-87
2023/04/19 07:52:06;;;;;;;19.33;16.50;;;;;;;;;;4862579;29;20034;-87
2023/04/19 07:54:32;;;;;;;20.08;15.88;;;;;;;;;;4862005;29;20060;-88
2023/04/19 07:57:02;;;;;;;19.35;13.93;;;;;;;;;;4876434;29;20084;-93
2023/04/19 07:59:28;;;;;;;18.00;13.88;;;;;;;;;;4882177;29;20067;-87
2023/04/19 08:01:54;;;;;;;18.75;14.65;;;;;;;;;;4881824;29;20155;-93
2023/04/19 08:04:26;;;;;;;18.10;14.38;;;;;;;;;;4876346;29;20057;-91
2023/04/19 08:06:52;;;;;;;14.70;12.45;;;;;;;;;;4884298;29;20090;-86
2023/04/19 08:09:18;;;;;;;16.15;13.50;;;;;;;;;;4882973;29;20029;-86
2023/04/19 08:11:45;;;;;;;16.98;13.52;;;;;;;;;;4881483;29;20083;-86
2023/04/19 08:14:11;;;;;;;14.70;12.55;;;;;;;;;;4891337;29;20029;-88
2023/04/19 08:16:37;;;;;;;19.45;14.90;;;;;;;;;;4880995;29;20478;-90
2023/04/19 08:19:10;;;;;;;17.92;14.20;;;;;;;;;;4883506;29;20090;-92
2023/04/19 08:21:43;;;;;;;16.83;12.93;;;;;;;;;;4894640;29;20136;-91
2023/04/19 08:24:09;;;;;;;16.83;14.25;;;;;;;;;;4885016;29;20056;-89
2023/04/19 08:26:35;;;;;;;17.80;14.32;;;;;;;;;;4860548;29;20025;-87
2023/04/19 08:29:01;;;;;;;15.70;13.13;;;;;;;;;;4860349;29;20124;-87
2023/04/19 08:31:30;;;;;;;17.33;14.30;;;;;;;;;;4860669;29;20033;-93
2023/04/19 08:33:59;;;;;;;16.45;13.40;;;;;;;;;;4861459;29;20484;-94
2023/04/19 08:36:29;;;;;;;15.57;13.02;;;;;;;;;;4860421;29;20539;-87
2023/04/19 08:38:55;;;;;;;17.45;13.57;;;;;;;;;;4860419;29;20041;-92
2023/04/19 08:41:22;;;;;;;16.23;13.40;;;;;;;;;;4860389;29;20444;-92
2023/04/19 08:43:50;;;;;;;16.75;14.52;;;;;;;;;;4860626;29;20068;-91
2023/04/19 08:46:17;;;;;;;16.33;14.00;;;;;;;;;;4875914;29;20038;-94
2023/04/19 08:48:43;;;;;;;17.73;13.30;;;;;;;;;;4876249;29;20032;-92
2023/04/19 08:51:09;;;;;;;15.52;13.23;;;;;;;;;;4877604;29;20032;-93
2023/04/19 08:53:37;;;;;;;15.50;13.25;;;;;;;;;;4865586;29;20486;-91
2023/04/19 08:56:03;;;;;;;17.27;14.27;;;;;;;;;;4879700;29;20036;-94
2023/04/19 08:58:31;;;;;;;16.08;13.88;;;;;;;;;;4879705;29;20025;-88
2023/04/19 09:00:58;;;;;;;18.27;14.73;;;;;;;;;;4880305;29;20061;-89
2023/04/19 09:03:24;;;;;;;19.23;15.50;;;;;;;;;;4880039;29;20065;-91
2023/04/19 09:05:50;;;;;;;19.63;17.08;;;;;;;;;;4874812;29;20033;-90
2023/04/19 09:08:23;;;;;;;19.02;15.32;;;;;;;;;;4872523;29;20475;-94
2023/04/19 09:11:01;;;;;;;21.05;15.63;;;;;;;;;;4882330;29;20057;-93
2023/04/19 09:13:28;;;;;;;22.85;17.48;;;;;;;;;;4880666;29;20109;-92
2023/04/19 09:15:56;;;;;;;19.30;15.25;;;;;;;;;;4879196;29;20034;-93
2023/04/19 09:18:23;;;;;;;14.82;12.07;;;;;;;;;;4879259;29;20032;-91
2023/04/19 09:20:55;;;;;;;7.97;6.07;;;;;;;;;;4878960;29;20029;-91
2023/04/19 09:23:24;;;;;;;6.60;4.55;;;;;;;;;;4878703;29;20497;-91
2023/04/19 09:25:59;;;;;;;4.50;3.40;;;;;;;;;;4879228;29;20128;-91
2023/04/19 09:28:25;;;;;;;5.35;3.75;;;;;;;;;;4878850;29;20573;-93
2023/04/19 09:30:55;;;;;;;6.75;4.43;;;;;;;;;;4881107;29;20033;-93
2023/04/19 09:33:35;;;;;;;5.75;4.20;;;;;;;;;;4884487;29;20113;-96
2023/04/19 09:36:36;;;;;;;5.85;4.30;;;;;;;;;;4859113;29;20042;-91
2023/04/19 09:39:02;;;;;;;6.57;4.53;;;;;;;;;;4860206;29;20034;-96
2023/04/19 09:41:29;;;;;;;6.53;4.13;;;;;;;;;;4861029;29;20034;-93
2023/04/19 09:44:08;;;;;;;6.45;4.72;;;;;;;;;;4844617;29;20049;-88
2023/04/19 09:46:36;;;;;;;6.82;4.43;;;;;;;;;;4859671;29;20030;-92
2023/04/19 09:49:15;;;;;;;5.78;4.57;;;;;;;;;;4860122;29;20034;-94
2023/04/19 09:51:45;;;;;;;8.00;4.82;;;;;;;;;;4859554;29;20046;-93
2023/04/19 09:57:15;;;;;;;5.80;4.22;;;;;;;;;;4845520;29;20045;-92
2023/04/19 09:59:41;;;;;;;6.03;4.55;;;;;;;;;;4859566;29;20034;-94
2023/04/19 10:02:07;;;;;;;5.97;4.60;;;;;;;;;;4858974;29;20488;-91
2023/04/19 10:04:35;;;;;;;6.53;4.75;;;;;;;;;;4859213;29;20128;-92
2023/04/19 10:07:01;;;;;;;6.45;4.97;;;;;;;;;;4859431;29;20058;-89
2023/04/19 10:09:28;;;;;;;7.80;4.63;;;;;;;;;;4859423;29;20038;-92
2023/04/19 10:11:54;;;;;;;6.00;4.28;;;;;;;;;;4859473;29;20082;-92
2023/04/19 10:14:26;;;;;;;5.15;3.97;;;;;;;;;;4859611;29;20112;-93
2023/04/19 10:16:52;;;;;;;5.63;4.20;;;;;;;;;;4859480;29;20069;-91
2023/04/19 10:19:19;;;;;;;5.63;4.15;;;;;;;;;;4859344;29;20132;-93
2023/04/19 10:21:47;;;;;;;5.75;4.25;;;;;;;;;;4859411;29;20026;-91
2023/04/19 10:24:14;;;;;;;7.03;3.90;;;;;;;;;;4859028;29;20073;-93
2023/04/19 10:26:58;;;;;;;5.10;4.00;;;;;;;;;;4862339;29;20030;-92
2023/04/19 10:29:43;;;;;;;6.03;4.30;;;;;;;;;;4858933;29;20128;-92
2023/04/19 10:32:13;;;;;;;5.20;4.00;;;;;;;;;;4858885;29;20057;-90
2023/04/19 10:34:39;;;;;;;5.80;3.90;;;;;;;;;;4858743;29;20137;-92
2023/04/19 10:37:10;;;;;;;5.75;3.53;;;;;;;;;;4858831;29;20078;-90
2023/04/19 10:39:43;;;;;;;4.55;3.55;;;;;;;;;;4859887;29;20140;-92
2023/04/19 10:42:10;;;;;;;5.53;3.70;;;;;;;;;;4859329;29;20392;-92
2023/04/19 10:44:36;;;;;;;6.20;3.42;;;;;;;;;;4858511;29;20492;-85
2023/04/19 10:47:04;;;;;;;6.45;3.97;;;;;;;;;;4859506;29;20034;-91
2023/04/19 10:49:31;;;;;;;5.03;3.55;;;;;;;;;;4858645;29;20056;-85
2023/04/19 10:51:58;;;;;;;4.57;4.00;;;;;;;;;;4858478;29;20082;-91
2023/04/19 10:54:36;;;;;;;5.38;4.50;;;;;;;;;;4844351;29;20037;-92
2023/04/19 10:57:04;;;;;;;6.18;4.05;;;;;;;;;;4842889;29;20048;-87
2023/04/19 10:59:33;;;;;;;6.90;4.95;;;;;;;;;;4858390;29;20057;-85
2023/04/19 11:02:01;;;;;;;5.15;4.30;;;;;;;;;;4858453;29;20392;-94
2023/04/19 11:04:36;;;;;;;11.35;9.20;;;;;;;;;;4844586;29;20041;-86
2023/04/19 11:07:03;;;;;;;185.20;130.65;;;;;;;;;;4877454;29;20029;-86
2023/04/19 11:10:04;;;;;;;10.65;8.82;;;;;;;;;;4883700;29;20052;-88
2023/04/19 11:12:30;;;;;;;7.68;6.03;;;;;;;;;;4853308;29;20518;-88
2023/04/19 11:14:58;;;;;;;8.18;5.93;;;;;;;;;;4887039;29;20037;-88
2023/04/19 11:17:30;;;;;;;6.07;5.28;;;;;;;;;;4873581;29;20161;-87
2023/04/19 11:19:59;;;;;;;6.60;5.90;;;;;;;;;;4880235;29;20029;-92
2023/04/19 11:23:15;;;;;;;6.70;5.22;;;;;;;;;;4883287;29;20115;-92
2023/04/19 11:25:49;;;;;;;6.90;5.30;;;;;;;;;;5013608;23;20061;-95
2023/04/19 11:28:20;;;;;;;6.97;5.55;;;;;;;;;;4900719;29;20036;-95
2023/04/19 11:30:59;;;;;;;9.85;6.10;;;;;;;;;;4907037;29;20040;-95
2023/04/19 11:33:27;;;;;;;8.52;6.45;;;;;;;;;;4909241;23;20499;-90
2023/04/19 11:35:56;;;;;;;7.82;6.03;;;;;;;;;;4915050;29;20025;-87
2023/04/19 11:38:27;;;;;;;7.15;5.90;;;;;;;;;;4898576;29;20483;-91
2023/04/19 11:41:02;;;;;;;10.05;6.13;;;;;;;;;;4894824;29;20081;-90
2023/04/19 11:43:54;;;;;;;6.45;5.38;;;;;;;;;;4902123;29;20029;-91
2023/04/19 11:46:43;;;;;;;7.15;6.10;;;;;;;;;;4897010;29;20040;-88
2023/04/19 11:49:25;;;;;;;7.30;6.00;;;;;;;;;;4924763;29;20040;-89
2023/04/19 11:51:58;;;;;;;5.72;5.13;;;;;;;;;;5192594;23;20093;-96
2023/04/19 11:57:23;;;;;;;6.65;5.60;;;;;;;;;;4889102;29;20063;-90
2023/04/19 12:00:20;;;;;;;6.57;5.47;;;;;;;;;;4908570;29;20078;-88
2023/04/19 12:06:21;;;;;;;5.68;4.28;;;;;;;;;;4898065;29;20089;-90
2023/04/19 12:09:11;;;;;;;5.78;4.38;;;;;;;;;;4913023;29;20037;-92
2023/04/19 12:15:04;;;;;;;5.25;4.18;;;;;;;;;;4875730;29;20037;-90
2023/04/19 12:17:30;;;;;;;5.70;5.00;;;;;;;;;;4871221;29;20029;-89
2023/04/19 12:19:59;;;;;;;6.20;4.88;;;;;;;;;;4887774;29;20103;-90
2023/04/19 12:22:52;;;;;;;6.15;5.13;;;;;;;;;;4886238;29;20021;-90
2023/04/19 12:25:19;;;;;;;7.30;5.40;;;;;;;;;;4837769;29;20050;-91
2023/04/19 12:31:22;;;;;;;7.10;5.70;;;;;;;;;;4848242;29;20045;-95
2023/04/19 12:43:35;;;;;;;7.03;5.93;;;;;;;;;;4822673;29;20038;-94
2023/04/19 12:46:01;;;;;;;8.52;5.82;;;;;;;;;;4810764;29;20086;-89
2023/04/19 12:48:51;;;;;;;8.73;6.20;;;;;;;;;;4822883;29;20044;-91
2023/04/19 12:51:18;;;;;;;8.20;6.03;;;;;;;;;;4869451;29;20041;-90
2023/04/19 12:59:55;;;;;;;7.40;6.10;;;;;;;;;;4840788;29;20161;-90
2023/04/19 13:05:31;;;;;;;7.73;6.30;;;;;;;;;;4842523;29;20098;-89
2023/04/19 13:11:14;;;;;;;6.05;5.43;;;;;;;;;;4892067;29;20128;-89
2023/04/19 13:13:51;;;;;;;6.65;5.40;;;;;;;;;;4879275;29;20025;-90
2023/04/19 13:16:18;;;;;;;8.23;5.85;;;;;;;;;;4894033;29;20044;-89
2023/04/19 13:18:49;;;;;;;7.88;6.68;;;;;;;;;;4868734;29;20041;-90
2023/04/19 13:21:20;;;;;;;9.43;6.85;;;;;;;;;;4872913;29;20043;-90
2023/04/19 13:23:48;;;;;;;7.47;5.63;;;;;;;;;;4877335;29;20052;-90
2023/04/19 13:26:15;;;;;;;6.45;5.28;;;;;;;;;;4865533;29;20037;-90
2023/04/19 13:28:45;;;;;;;6.55;5.40;;;;;;;;;;4874980;29;20133;-91
2023/04/19 13:31:11;;;;;;;6.55;5.75;;;;;;;;;;4875574;29;20036;-90
2023/04/19 13:33:37;;;;;;;6.25;5.40;;;;;;;;;;4872075;29;20075;-91
2023/04/19 13:36:03;;;;;;;6.70;5.80;;;;;;;;;;4865615;29;20490;-93
2023/04/19 13:38:29;;;;;;;8.85;5.68;;;;;;;;;;4881331;29;20053;-91
2023/04/19 13:40:56;;;;;;;5.35;4.45;;;;;;;;;;4865541;29;20037;-92
2023/04/19 13:43:22;;;;;;;5.88;4.35;;;;;;;;;;4865426;29;20072;-94
2023/04/19 13:45:48;;;;;;;7.25;3.83;;;;;;;;;;4870644;29;20041;-93
2023/04/19 13:48:14;;;;;;;5.50;4.43;;;;;;;;;;4869860;29;20029;-91
2023/04/19 13:50:40;;;;;;;4.78;4.00;;;;;;;;;;4865569;29;20025;-92
2023/04/19 13:53:07;;;;;;;5.82;4.30;;;;;;;;;;4882070;29;20035;-93
2023/04/19 13:55:33;;;;;;;5.65;4.10;;;;;;;;;;4865469;29;20064;-90
2023/04/19 13:57:59;;;;;;;4.70;3.58;;;;;;;;;;4896502;29;20100;-91
2023/04/19 14:00:25;;;;;;;4.53;3.78;;;;;;;;;;4896301;29;20135;-92
2023/04/19 14:02:52;;;;;;;4.70;3.90;;;;;;;;;;4896439;29;20058;-93
2023/04/19 14:05:18;;;;;;;6.00;4.20;;;;;;;;;;4896385;29;20044;-88
2023/04/19 14:07:44;;;;;;;7.93;4.25;;;;;;;;;;4896584;29;20029;-91
2023/04/19 14:10:10;;;;;;;5.50;4.30;;;;;;;;;;4897549;29;20029;-93
2023/04/19 14:12:36;;;;;;;5.65;4.30;;;;;;;;;;4886049;29;20024;-92
2023/04/19 14:15:02;;;;;;;5.05;4.22;;;;;;;;;;4903301;29;20510;-92
2023/04/19 14:17:28;;;;;;;5.97;3.78;;;;;;;;;;4896334;29;20095;-92
2023/04/19 14:19:55;;;;;;;6.18;4.80;;;;;;;;;;4880438;29;20037;-93
2023/04/19 14:22:21;;;;;;;6.70;4.47;;;;;;;;;;4881618;29;20108;-87
2023/04/19 14:24:50;;;;;;;5.80;4.70;;;;;;;;;;4895806;29;20041;-95
2023/04/19 14:27:16;;;;;;;5.93;4.70;;;;;;;;;;4880160;29;20029;-91
2023/04/19 14:29:42;;;;;;;7.38;5.05;;;;;;;;;;4896005;29;20040;-87
2023/04/19 14:32:08;;;;;;;9.57;4.93;;;;;;;;;;4896099;29;20123;-93
2023/04/19 14:34:35;;;;;;;5.70;4.45;;;;;;;;;;4881275;29;20048;-89
2023/04/19 14:37:01;;;;;;;6.57;4.78;;;;;;;;;;4895693;29;20402;-93
2023/04/19 14:39:27;;;;;;;6.13;4.60;;;;;;;;;;4895861;29;20065;-91
2023/04/19 14:50:12;;;;;;;6.05;4.50;;;;;;;;;;4962924;23;20057;-91
2023/04/19 14:55:15;;;;;;;6.78;4.60;;;;;;;;;;5007540;23;20057;-92
2023/04/19 14:57:41;;;;;;;5.95;4.85;;;;;;;;;;4895327;29;20029;-88
2023/04/19 15:00:08;;;;;;;5.97;5.05;;;;;;;;;;4895453;29;20041;-90
2023/04/19 15:02:34;;;;;;;6.35;5.20;;;;;;;;;;4895973;29;20053;-93
2023/04/19 15:05:00;;;;;;;8.45;5.15;;;;;;;;;;4904938;29;20037;-89
2023/04/19 15:07:27;;;;;;;6.40;5.43;;;;;;;;;;4888476;29;20088;-92
2023/04/19 15:09:53;;;;;;;8.27;5.05;;;;;;;;;;4879722;29;20064;-92
2023/04/19 15:12:19;;;;;;;6.10;4.82;;;;;;;;;;4879330;29;20086;-92
2023/04/19 15:14:46;;;;;;;6.35;4.95;;;;;;;;;;4895374;29;20116;-86
2023/04/19 15:17:12;;;;;;;7.63;5.15;;;;;;;;;;4879322;29;20033;-92
2023/04/19 15:19:38;;;;;;;6.38;5.15;;;;;;;;;;4894883;29;20045;-89
2023/04/19 15:22:07;;;;;;;6.97;5.35;;;;;;;;;;4880405;29;20021;-93
2023/04/19 15:24:34;;;;;;;6.05;4.13;;;;;;;;;;4895172;29;20486;-86
2023/04/19 15:27:00;;;;;;;7.15;5.07;;;;;;;;;;4895041;29;20479;-87
2023/04/19 15:29:26;;;;;;;9.70;6.20;;;;;;;;;;4878048;29;20044;-87